createdAt,value
2022-12-08T00:01:36.557Z,90.00
2022-12-08T00:04:05.769Z,90.24
2022-12-08T00:06:54.125Z,89.88
2022-12-08T00:09:25.708Z,90.02
2022-12-08T00:11:56.517Z,90.01
2022-12-08T00:14:26.622Z,89.80
2022-12-08T00:16:55.146Z,89.95
2022-12-08T00:19:24.002Z,89.86
2022-12-08T00:21:54.541Z,89.64
2022-12-08T00:24:23.970Z,89.67
2022-12-08T00:26:52.858Z,89.94
2022-12-08T00:29:21.037Z,90.14
2022-12-08T00:31:49.282Z,89.81
2022-12-08T00:34:17.528Z,90.15
2022-12-08T00:36:45.922Z,90.07
2022-12-08T00:39:16.571Z,90.22
2022-12-08T00:42:02.140Z,90.20
2022-12-08T00:44:30.330Z,90.20
2022-12-08T00:46:58.546Z,90.39
2022-12-08T00:49:26.693Z,90.28
2022-12-08T00:51:55.543Z,90.37
2022-12-08T00:54:25.348Z,90.21
2022-12-08T00:56:53.650Z,90.29
2022-12-08T00:59:21.955Z,90.83
2022-12-08T01:01:50.139Z,90.58
2022-12-08T01:04:19.640Z,90.58
2022-12-08T01:06:48.454Z,90.54
2022-12-08T01:09:17.753Z,90.84
2022-12-08T01:11:47.712Z,90.68
2022-12-08T01:14:16.222Z,90.77
2022-12-08T01:16:44.693Z,90.89
2022-12-08T01:19:14.333Z,90.78
2022-12-08T01:21:43.251Z,90.65
2022-12-08T01:24:13.104Z,90.80
2022-12-08T01:26:41.674Z,90.70
2022-12-08T01:29:11.443Z,90.88
2022-12-08T01:31:40.222Z,90.54
2022-12-08T01:34:09.213Z,90.75
2022-12-08T01:36:38.500Z,90.97
2022-12-08T01:39:08.876Z,91.05
2022-12-08T01:41:39.069Z,91.08
2022-12-08T01:44:40.341Z,91.08
2022-12-08T01:47:09.965Z,91.03
2022-12-08T01:49:38.205Z,91.01
2022-12-08T01:52:10.612Z,90.99
2022-12-08T01:54:43.872Z,90.95
2022-12-08T01:57:15.631Z,90.99
2022-12-08T01:59:47.862Z,91.18
2022-12-08T02:02:17.475Z,91.15
2022-12-08T02:04:45.666Z,91.25
2022-12-08T02:07:14.407Z,91.23
2022-12-08T02:09:42.997Z,91.24
2022-12-08T02:12:11.527Z,91.19
2022-12-08T02:14:39.984Z,91.22
2022-12-08T02:17:21.263Z,91.21
2022-12-08T02:20:23.660Z,91.21
2022-12-08T02:23:01.335Z,91.27
2022-12-08T02:25:38.787Z,91.29
2022-12-08T02:28:31.504Z,91.20
2022-12-08T02:31:08.044Z,91.25
2022-12-08T02:33:56.115Z,91.29
2022-12-08T02:36:26.604Z,91.22
2022-12-08T02:39:02.580Z,91.22
2022-12-08T02:41:38.521Z,91.20
2022-12-08T02:44:12.352Z,91.18
2022-12-08T02:46:44.449Z,91.03
2022-12-08T02:49:15.255Z,91.01
2022-12-08T02:51:43.386Z,91.24
2022-12-08T02:54:11.950Z,91.25
2022-12-08T02:56:56.895Z,91.05
2022-12-08T02:59:34.880Z,90.80
2022-12-08T03:02:16.099Z,91.12
2022-12-08T03:04:47.914Z,91.27
2022-12-08T03:07:23.101Z,91.36
2022-12-08T03:09:53.869Z,91.37
2022-12-08T03:12:27.210Z,91.38
2022-12-08T03:14:57.946Z,91.55
2022-12-08T03:17:28.782Z,91.45
2022-12-08T03:19:59.429Z,91.39
2022-12-08T03:22:28.748Z,91.28
2022-12-08T03:24:57.649Z,91.26
2022-12-08T03:27:27.882Z,91.34
2022-12-08T03:29:58.820Z,91.32
2022-12-08T03:32:31.346Z,91.31
2022-12-08T03:35:03.002Z,91.27
2022-12-08T03:37:31.338Z,91.33
2022-12-08T03:39:59.459Z,91.40
2022-12-08T03:42:27.632Z,91.45
2022-12-08T03:44:55.803Z,91.38
2022-12-08T03:47:23.950Z,91.34
2022-12-08T03:49:52.098Z,91.42
2022-12-08T03:52:21.595Z,91.52
2022-12-08T03:54:49.781Z,91.52
2022-12-08T03:57:17.976Z,91.57
2022-12-08T03:59:46.123Z,91.58
2022-12-08T04:02:14.351Z,91.49
2022-12-08T04:04:42.524Z,91.42
2022-12-08T04:07:10.655Z,91.52
2022-12-08T04:09:41.610Z,91.55
2022-12-08T04:12:09.798Z,91.48
2022-12-08T04:14:37.915Z,91.17
2022-12-08T04:17:06.046Z,91.14
2022-12-08T04:19:34.202Z,90.90
2022-12-08T04:22:02.397Z,90.97
2022-12-08T04:24:30.691Z,91.08
2022-12-08T04:27:00.279Z,91.16
2022-12-08T04:29:28.396Z,91.36
2022-12-08T04:31:56.572Z,91.48
2022-12-08T04:34:24.837Z,91.75
2022-12-08T04:36:53.012Z,91.76
2022-12-08T04:39:21.133Z,91.88
2022-12-08T04:41:49.221Z,91.51
2022-12-08T04:44:18.802Z,91.71
2022-12-08T04:46:46.995Z,91.73
2022-12-08T04:49:15.145Z,91.68
2022-12-08T04:51:43.257Z,91.77
2022-12-08T04:54:11.384Z,91.77
2022-12-08T04:56:39.500Z,91.71
2022-12-08T04:59:07.667Z,91.86
2022-12-08T05:01:37.454Z,91.76
2022-12-08T05:04:05.690Z,91.83
2022-12-08T05:06:33.807Z,91.79
2022-12-08T05:09:01.967Z,91.66
2022-12-08T05:11:30.439Z,91.80
2022-12-08T05:13:58.536Z,91.74
2022-12-08T05:16:26.703Z,91.73
2022-12-08T05:18:56.277Z,91.84
2022-12-08T05:21:24.412Z,91.84
2022-12-08T05:23:52.519Z,91.80
2022-12-08T05:26:20.670Z,91.82
2022-12-08T05:28:48.790Z,91.75
2022-12-08T05:31:17.974Z,91.73
2022-12-08T05:33:47.119Z,91.84
2022-12-08T05:36:17.765Z,91.93
2022-12-08T05:38:46.761Z,91.93
2022-12-08T05:41:16.589Z,91.87
2022-12-08T05:43:44.866Z,91.94
2022-12-08T05:46:13.208Z,91.91
2022-12-08T05:48:41.451Z,91.85
2022-12-08T05:51:17.565Z,92.00
2022-12-08T05:53:47.764Z,91.85
2022-12-08T05:56:16.096Z,92.05
2022-12-08T05:58:44.242Z,91.94
2022-12-08T06:01:20.512Z,91.92
2022-12-08T06:03:48.671Z,91.84
2022-12-08T06:06:16.870Z,91.83
2022-12-08T06:08:46.671Z,91.80
2022-12-08T06:11:19.800Z,91.83
2022-12-08T06:13:48.303Z,91.76
2022-12-08T06:16:16.606Z,91.71
2022-12-08T06:18:44.842Z,91.78
2022-12-08T06:21:14.336Z,91.81
2022-12-08T06:23:42.909Z,91.88
2022-12-08T06:26:13.904Z,91.78
2022-12-08T06:28:42.785Z,91.80
2022-12-08T06:31:12.530Z,91.93
2022-12-08T06:33:40.681Z,91.86
2022-12-08T06:36:09.101Z,91.99
2022-12-08T06:38:42.954Z,91.89
2022-12-08T06:41:13.698Z,91.87
2022-12-08T06:43:42.047Z,91.87
2022-12-08T06:46:12.919Z,91.80
2022-12-08T06:48:41.485Z,91.90
2022-12-08T06:51:10.709Z,91.91
2022-12-08T06:53:39.103Z,91.88
2022-12-08T06:56:08.474Z,91.69
2022-12-08T06:58:38.121Z,91.92
2022-12-08T07:01:08.260Z,91.82
2022-12-08T07:03:36.742Z,91.96
2022-12-08T07:06:05.424Z,91.95
2022-12-08T07:08:33.800Z,91.99
2022-12-08T07:11:07.907Z,92.02
2022-12-08T07:13:37.562Z,91.96
2022-12-08T07:16:10.177Z,92.08
2022-12-08T07:18:38.672Z,92.07
2022-12-08T07:21:08.353Z,92.04
2022-12-08T07:23:37.062Z,91.95
2022-12-08T07:28:57.243Z,91.87
2022-12-08T07:31:26.740Z,91.95
2022-12-08T07:33:55.926Z,91.80
2022-12-08T07:36:24.637Z,92.01
2022-12-08T07:38:53.703Z,92.03
2022-12-08T07:41:23.916Z,92.34
2022-12-08T07:43:53.469Z,92.21
2022-12-08T07:46:24.580Z,92.28
2022-12-08T07:48:56.996Z,92.13
2022-12-08T07:51:26.015Z,92.16
2022-12-08T07:53:55.194Z,92.22
2022-12-08T07:56:23.807Z,92.03
2022-12-08T07:58:52.039Z,92.15
2022-12-08T08:01:24.210Z,92.15
2022-12-08T08:03:52.972Z,92.01
2022-12-08T08:06:21.270Z,92.09
2022-12-08T08:08:49.484Z,92.09
2022-12-08T08:11:21.254Z,92.11
2022-12-08T08:13:49.976Z,92.19
2022-12-08T08:16:18.892Z,92.12
2022-12-08T08:18:50.452Z,92.03
2022-12-08T08:21:44.580Z,91.92
2022-12-08T08:24:08.041Z,92.06
2022-12-08T08:26:36.204Z,92.13
2022-12-08T08:29:04.354Z,92.06
2022-12-08T08:31:32.605Z,91.96
2022-12-08T08:34:06.177Z,91.49
2022-12-08T08:36:34.756Z,91.65
2022-12-08T08:39:02.960Z,91.89
2022-12-08T08:41:31.164Z,92.00
2022-12-08T08:43:59.319Z,92.02
2022-12-08T08:46:27.526Z,91.96
2022-12-08T08:48:55.808Z,91.91
2022-12-08T08:51:25.525Z,91.94
2022-12-08T08:53:53.695Z,91.85
2022-12-08T08:56:21.832Z,91.92
2022-12-08T08:58:50.590Z,91.85
2022-12-08T09:01:20.962Z,91.90
2022-12-08T09:03:49.446Z,91.80
2022-12-08T09:06:18.126Z,91.75
2022-12-08T09:08:48.435Z,91.75
2022-12-08T09:11:18.489Z,91.64
2022-12-08T09:13:49.467Z,91.70
2022-12-08T09:16:18.802Z,91.58
2022-12-08T09:18:48.243Z,91.67
2022-12-08T09:21:22.303Z,91.63
2022-12-08T09:23:53.620Z,91.66
2022-12-08T09:26:23.227Z,91.68
2022-12-08T09:28:51.811Z,91.68
2022-12-08T09:31:21.033Z,91.54
2022-12-08T09:33:51.820Z,91.63
2022-12-08T09:36:19.997Z,91.81
2022-12-08T09:38:49.127Z,91.79
2022-12-08T09:41:23.692Z,91.80
2022-12-08T09:44:03.887Z,91.67
2022-12-08T09:46:34.862Z,91.77
2022-12-08T09:49:04.400Z,91.67
2022-12-08T09:51:36.480Z,91.58
2022-12-08T09:54:08.517Z,91.35
2022-12-08T09:56:38.759Z,91.15
2022-12-08T09:59:16.019Z,90.97
2022-12-08T10:01:44.259Z,90.93
2022-12-08T10:04:20.035Z,90.68
2022-12-08T10:06:54.534Z,90.54
2022-12-08T10:09:30.048Z,90.56
2022-12-08T10:12:01.868Z,90.67
2022-12-08T10:14:35.547Z,90.70
2022-12-08T10:17:08.858Z,90.71
2022-12-08T10:19:37.499Z,90.71
2022-12-08T10:22:13.383Z,90.78
2022-12-08T10:24:47.305Z,90.96
2022-12-08T10:27:16.970Z,90.94
2022-12-08T10:29:45.240Z,90.96
2022-12-08T10:32:19.087Z,90.99
2022-12-08T10:35:01.501Z,91.00
2022-12-08T10:37:29.928Z,91.00
2022-12-08T10:40:03.275Z,91.13
2022-12-08T10:42:38.504Z,91.17
2022-12-08T10:45:21.439Z,91.37
2022-12-08T10:47:57.477Z,91.56
2022-12-08T10:50:30.060Z,91.68
2022-12-08T10:52:59.808Z,91.53
2022-12-08T10:55:28.991Z,91.39
2022-12-08T10:57:58.529Z,91.37
2022-12-08T11:00:28.478Z,91.40
2022-12-08T11:02:59.564Z,91.04
2022-12-08T11:05:30.494Z,90.88
2022-12-08T11:07:58.950Z,90.73
2022-12-08T11:10:33.643Z,90.97
2022-12-08T11:13:05.992Z,91.03
2022-12-08T11:15:37.492Z,91.19
2022-12-08T11:18:22.736Z,91.13
2022-12-08T11:21:00.300Z,90.87
2022-12-08T11:23:29.844Z,90.72
2022-12-08T11:26:03.933Z,90.82
2022-12-08T11:28:33.521Z,90.89
2022-12-08T11:31:06.165Z,90.80
2022-12-08T11:33:34.756Z,90.95
2022-12-08T11:36:07.929Z,91.14
2022-12-08T11:38:42.018Z,90.95
2022-12-08T11:41:16.074Z,90.79
2022-12-08T11:43:51.993Z,90.54
2022-12-08T11:46:22.410Z,90.44
2022-12-08T11:48:54.368Z,90.24
2022-12-08T11:51:30.705Z,90.15
2022-12-08T11:54:11.433Z,90.04
2022-12-08T11:56:41.391Z,90.08
2022-12-08T11:59:16.874Z,90.19
2022-12-08T12:01:45.009Z,90.11
2022-12-08T12:04:20.305Z,90.00
2022-12-08T12:07:26.211Z,90.20
2022-12-08T12:10:07.590Z,90.57
2022-12-08T12:12:47.411Z,90.51
2022-12-08T12:15:56.792Z,90.94
2022-12-08T12:18:28.861Z,91.05
2022-12-08T12:21:00.262Z,91.20
2022-12-08T12:23:36.373Z,90.98
2022-12-08T12:26:08.306Z,90.93
2022-12-08T12:28:43.043Z,91.05
2022-12-08T12:31:13.257Z,91.25
2022-12-08T12:33:44.279Z,91.16
2022-12-08T12:36:13.305Z,90.99
2022-12-08T12:39:06.362Z,90.81
2022-12-08T12:41:39.223Z,90.94
2022-12-08T12:44:28.699Z,91.26
2022-12-08T12:46:59.196Z,91.33
2022-12-08T12:50:16.318Z,91.19
2022-12-08T12:52:47.599Z,91.06
2022-12-08T12:55:31.228Z,91.19
2022-12-08T12:57:59.871Z,91.05
2022-12-08T13:00:28.670Z,90.65
2022-12-08T13:02:58.159Z,90.50
2022-12-08T13:05:28.111Z,90.56
2022-12-08T13:08:00.171Z,90.40
2022-12-08T13:10:30.798Z,90.55
2022-12-08T13:13:07.883Z,90.61
2022-12-08T13:15:38.198Z,90.70
2022-12-08T13:18:07.415Z,90.75
2022-12-08T13:20:43.640Z,90.55
2022-12-08T13:23:28.446Z,90.70
2022-12-08T13:26:29.820Z,90.75
2022-12-08T13:29:19.728Z,90.73
2022-12-08T13:31:51.357Z,90.67
2022-12-08T13:34:29.762Z,90.82
2022-12-08T13:37:08.451Z,90.77
2022-12-08T13:39:43.336Z,90.84
2022-12-08T13:42:20.750Z,90.86
2022-12-08T13:48:13.624Z,90.67
2022-12-08T13:52:33.029Z,90.80
2022-12-08T13:59:28.232Z,90.57
2022-12-08T14:01:58.612Z,90.68
2022-12-08T14:04:54.374Z,90.79
2022-12-08T14:07:15.915Z,90.80
2022-12-08T14:09:44.265Z,90.70
2022-12-08T14:12:19.821Z,90.68
2022-12-08T14:15:05.450Z,90.57
2022-12-08T14:17:34.804Z,90.70
2022-12-08T14:20:04.850Z,90.70
2022-12-08T14:22:37.485Z,90.72
2022-12-08T14:25:07.657Z,90.76
2022-12-08T14:27:38.853Z,90.67
2022-12-08T14:30:08.930Z,90.92
2022-12-08T14:32:40.563Z,91.08
2022-12-08T14:35:21.816Z,91.34
2022-12-08T14:37:51.612Z,91.41
2022-12-08T14:40:25.554Z,91.29
2022-12-08T14:43:06.524Z,91.38
2022-12-08T14:45:35.263Z,91.61
2022-12-08T14:48:21.749Z,91.54
2022-12-08T14:51:02.869Z,91.64
2022-12-08T14:53:37.074Z,91.44
2022-12-08T14:56:16.596Z,91.60
2022-12-08T14:58:46.247Z,91.58
2022-12-08T15:01:17.115Z,91.56
2022-12-08T15:03:50.726Z,91.70
2022-12-08T15:06:21.745Z,92.03
2022-12-08T15:08:53.179Z,92.05
2022-12-08T15:11:39.013Z,91.96
2022-12-08T15:14:28.193Z,91.98
2022-12-08T15:16:56.360Z,91.86
2022-12-08T15:19:32.236Z,91.85
2022-12-08T15:22:08.744Z,91.79
2022-12-08T15:24:36.893Z,91.79
2022-12-08T15:27:05.279Z,91.84
2022-12-08T15:29:34.890Z,91.65
2022-12-08T15:32:03.117Z,91.59
2022-12-08T15:34:31.642Z,92.12
2022-12-08T15:36:59.860Z,92.15
2022-12-08T15:39:35.695Z,92.09
2022-12-08T15:42:05.150Z,92.23
2022-12-08T15:44:34.694Z,92.31
2022-12-08T15:47:03.044Z,92.43
2022-12-08T15:49:31.367Z,92.45
2022-12-08T15:52:10.647Z,92.10
2022-12-08T15:54:39.487Z,92.06
2022-12-08T15:57:19.465Z,92.11
2022-12-08T15:59:52.397Z,91.90
2022-12-08T16:02:22.830Z,91.94
2022-12-08T16:07:39.769Z,91.73
2022-12-08T16:10:09.765Z,91.75
2022-12-08T16:15:59.661Z,91.67
2022-12-08T16:18:31.248Z,91.75
2022-12-08T16:23:48.009Z,91.66
2022-12-08T16:26:44.125Z,91.72
2022-12-08T16:29:06.897Z,91.68
2022-12-08T16:31:36.553Z,91.64
2022-12-08T16:34:04.775Z,91.73
2022-12-08T16:36:33.044Z,91.82
2022-12-08T16:39:01.186Z,91.69
2022-12-08T16:41:46.611Z,91.56
2022-12-08T16:44:14.783Z,91.64
2022-12-08T16:46:44.434Z,91.54
2022-12-08T16:49:12.586Z,91.64
2022-12-08T16:51:44.884Z,91.71
2022-12-08T16:54:13.033Z,91.79
2022-12-08T16:56:41.195Z,91.69
2022-12-08T16:59:09.326Z,91.74
2022-12-08T17:01:37.538Z,91.95
2022-12-08T17:04:30.362Z,91.91
2022-12-08T17:06:55.341Z,92.04
2022-12-08T17:09:23.497Z,92.00
2022-12-08T17:11:51.697Z,92.04
2022-12-08T17:14:19.878Z,92.07
2022-12-08T17:16:48.192Z,92.14
2022-12-08T17:19:17.767Z,92.13
2022-12-08T17:21:46.110Z,92.10
2022-12-08T17:24:18.584Z,92.20
2022-12-08T17:26:50.025Z,92.16
2022-12-08T17:29:18.714Z,92.17
2022-12-08T17:31:47.460Z,92.02
2022-12-08T17:34:17.019Z,92.05
2022-12-08T17:36:45.167Z,92.05
2022-12-08T17:39:18.276Z,92.25
2022-12-08T17:41:47.723Z,91.99
2022-12-08T17:44:17.947Z,92.30
2022-12-08T17:46:52.069Z,92.05
2022-12-08T17:49:24.473Z,91.95
2022-12-08T17:51:54.527Z,92.12
2022-12-08T17:54:22.692Z,92.02
2022-12-08T17:56:50.867Z,92.05
2022-12-08T17:59:19.140Z,92.16
2022-12-08T18:01:47.508Z,92.07
2022-12-08T18:04:15.779Z,92.05
2022-12-08T18:06:45.395Z,92.20
2022-12-08T18:09:14.306Z,92.10
2022-12-08T18:11:42.888Z,92.12
2022-12-08T18:14:11.947Z,92.07
2022-12-08T18:16:41.764Z,92.25
2022-12-08T18:19:11.113Z,92.15
2022-12-08T18:21:39.783Z,92.06
2022-12-08T18:24:14.995Z,91.79
2022-12-08T18:26:43.163Z,92.12
2022-12-08T18:29:11.324Z,92.06
2022-12-08T18:31:39.528Z,91.88
2022-12-08T18:34:07.728Z,91.90
2022-12-08T18:36:35.870Z,91.88
2022-12-08T18:39:10.252Z,91.87
2022-12-08T18:41:40.397Z,92.00
2022-12-08T18:44:08.627Z,91.94
2022-12-08T18:46:36.840Z,91.99
2022-12-08T18:49:05.051Z,91.94
2022-12-08T18:51:33.167Z,91.79
2022-12-08T18:54:01.331Z,91.78
2022-12-08T18:56:31.142Z,91.78
2022-12-08T18:59:03.928Z,91.80
2022-12-08T19:01:32.693Z,91.81
2022-12-08T19:06:49.658Z,91.87
2022-12-08T19:09:18.412Z,91.96
2022-12-08T19:11:46.574Z,92.00
2022-12-08T19:14:16.171Z,91.81
2022-12-08T19:16:44.356Z,91.81
2022-12-08T19:19:12.500Z,91.82
2022-12-08T19:21:46.111Z,91.81
2022-12-08T19:24:14.748Z,91.85
2022-12-08T19:26:43.008Z,91.99
2022-12-08T19:29:11.474Z,91.91
2022-12-08T19:31:41.593Z,91.81
2022-12-08T19:34:10.564Z,92.01
2022-12-08T19:36:42.959Z,91.63
2022-12-08T19:39:33.500Z,91.83
2022-12-08T19:42:19.215Z,91.94
2022-12-08T19:44:56.339Z,92.11
2022-12-08T19:47:27.331Z,92.15
2022-12-08T19:50:16.299Z,91.96
2022-12-08T19:52:45.748Z,92.12
2022-12-08T19:55:14.208Z,92.00
2022-12-08T19:57:42.594Z,92.04
2022-12-08T20:00:12.627Z,92.16
2022-12-08T20:02:42.373Z,92.24
2022-12-08T20:05:15.150Z,92.20
2022-12-08T20:07:43.837Z,92.31
2022-12-08T20:10:16.292Z,92.18
2022-12-08T20:12:44.701Z,92.28
2022-12-08T20:15:14.701Z,92.31
2022-12-08T20:17:44.854Z,92.39
2022-12-08T20:20:14.660Z,92.34
2022-12-08T20:22:46.466Z,92.41
2022-12-08T20:25:15.168Z,92.56
2022-12-08T20:27:43.665Z,92.58
2022-12-08T20:30:16.981Z,92.60
2022-12-08T20:32:47.050Z,92.59
2022-12-08T20:35:16.355Z,92.59
2022-12-08T20:37:44.557Z,92.80
2022-12-08T20:40:13.223Z,92.38
2022-12-08T20:42:41.671Z,92.47
2022-12-08T20:45:10.549Z,92.33
2022-12-08T20:47:39.257Z,92.67
2022-12-08T20:50:10.425Z,92.80
2022-12-08T20:52:39.237Z,92.88
2022-12-08T20:55:08.999Z,92.61
2022-12-08T20:57:37.443Z,92.87
2022-12-08T21:00:06.796Z,92.85
2022-12-08T21:02:35.506Z,92.95
2022-12-08T21:05:04.089Z,93.04
2022-12-08T21:07:34.884Z,93.03
2022-12-08T21:10:03.928Z,92.96
2022-12-08T21:12:33.409Z,92.99
2022-12-08T21:15:01.667Z,92.79
2022-12-08T21:17:30.018Z,92.81
2022-12-08T21:19:58.234Z,92.98
2022-12-08T21:22:26.400Z,93.09
2022-12-08T21:24:56.037Z,92.81
2022-12-08T21:27:24.334Z,92.86
2022-12-08T21:29:52.575Z,92.90
2022-12-08T21:32:23.427Z,92.98
2022-12-08T21:34:55.457Z,92.91
2022-12-08T21:37:24.535Z,92.89
2022-12-08T21:39:52.966Z,92.93
2022-12-08T21:42:40.328Z,93.00
2022-12-08T21:45:09.611Z,92.86
2022-12-08T21:47:38.180Z,92.96
2022-12-08T21:50:08.272Z,92.93
2022-12-08T21:52:38.667Z,92.32
2022-12-08T21:55:08.367Z,92.67
2022-12-08T21:57:38.021Z,92.77
2022-12-08T22:00:08.122Z,92.79
2022-12-08T22:02:36.818Z,92.63
2022-12-08T22:05:05.438Z,92.54
2022-12-08T22:07:33.993Z,92.54
2022-12-08T22:10:02.398Z,92.55
2022-12-08T22:12:30.799Z,92.49
2022-12-08T22:15:00.376Z,92.62
2022-12-08T22:17:28.824Z,92.56
2022-12-08T22:19:57.921Z,92.54
2022-12-08T22:22:26.193Z,92.44
2022-12-08T22:24:54.374Z,92.35
2022-12-08T22:27:22.541Z,92.36
2022-12-08T22:29:50.698Z,92.25
2022-12-08T22:32:20.454Z,92.24
2022-12-08T22:34:49.011Z,92.15
2022-12-08T22:37:17.211Z,92.08
2022-12-08T22:39:45.381Z,91.91
2022-12-08T22:42:15.095Z,91.85
2022-12-08T22:44:43.493Z,91.84
2022-12-08T22:47:11.871Z,91.80
2022-12-08T22:49:41.578Z,91.68
2022-12-08T22:52:09.830Z,91.60
2022-12-08T22:54:38.118Z,91.66
2022-12-08T22:57:06.246Z,91.76
2022-12-08T22:59:34.673Z,91.71
2022-12-08T23:02:03.134Z,91.61
2022-12-08T23:04:31.492Z,91.61
2022-12-08T23:07:01.397Z,91.71
2022-12-08T23:09:29.609Z,91.86
2022-12-08T23:11:57.853Z,91.87
2022-12-08T23:14:25.982Z,91.76
2022-12-08T23:16:54.266Z,91.79
2022-12-08T23:19:22.605Z,91.69
2022-12-08T23:21:50.884Z,91.74
2022-12-08T23:24:20.401Z,91.67
2022-12-08T23:26:48.651Z,91.81
2022-12-08T23:29:16.764Z,91.63
2022-12-08T23:31:45.241Z,91.58
2022-12-08T23:34:13.887Z,91.66
2022-12-08T23:36:42.049Z,91.93
2022-12-08T23:39:11.583Z,91.72
2022-12-08T23:41:41.367Z,92.01
2022-12-08T23:44:11.980Z,92.12
2022-12-08T23:46:40.495Z,92.39
2022-12-08T23:49:08.679Z,92.18
2022-12-08T23:51:36.828Z,92.57
2022-12-08T23:54:07.048Z,92.62
2022-12-08T23:56:35.443Z,92.80
2022-12-08T23:59:05.182Z,92.87
